sensor_id;sensor_type;location;lat;lon;timestamp;P1;durP1;ratioP1;P2;durP2;ratioP2
25449;SDS011;13371;52.080;5.624;2023-03-18T00:00:42;6.25;;;2.90;;
25449;SDS011;13371;52.080;5.624;2023-03-18T00:03:08;7.55;;;2.50;;
25449;SDS011;13371;52.080;5.624;2023-03-18T00:05:34;5.82;;;3.10;;
25449;SDS011;13371;52.080;5.624;2023-03-18T00:08:00;4.47;;;2.20;;
25449;SDS011;13371;52.080;5.624;2023-03-18T00:10:27;6.05;;;3.05;;
25449;SDS011;13371;52.080;5.624;2023-03-18T00:12:52;7.97;;;3.30;;
25449;SDS011;13371;52.080;5.624;2023-03-18T00:15:18;5.28;;;3.10;;
25449;SDS011;13371;52.080;5.624;2023-03-18T00:17:45;6.60;;;3.65;;
25449;SDS011;13371;52.080;5.624;2023-03-18T00:20:12;7.15;;;3.20;;
25449;SDS011;13371;52.080;5.624;2023-03-18T00:22:40;8.90;;;4.00;;
25449;SDS011;13371;52.080;5.624;2023-03-18T00:25:08;6.78;;;3.33;;
25449;SDS011;13371;52.080;5.624;2023-03-18T00:27:35;12.25;;;4.05;;
25449;SDS011;13371;52.080;5.624;2023-03-18T00:30:02;6.38;;;3.72;;
25449;SDS011;13371;52.080;5.624;2023-03-18T00:32:29;7.32;;;3.60;;
25449;SDS011;13371;52.080;5.624;2023-03-18T00:34:55;10.38;;;4.53;;
25449;SDS011;13371;52.080;5.624;2023-03-18T00:37:22;7.78;;;3.28;;
25449;SDS011;13371;52.080;5.624;2023-03-18T00:39:56;6.15;;;3.30;;
25449;SDS011;13371;52.080;5.624;2023-03-18T00:42:23;6.72;;;3.42;;
25449;SDS011;13371;52.080;5.624;2023-03-18T00:44:49;6.18;;;3.50;;
25449;SDS011;13371;52.080;5.624;2023-03-18T00:47:15;7.75;;;3.53;;
25449;SDS011;13371;52.080;5.624;2023-03-18T00:49:40;6.95;;;3.75;;
25449;SDS011;13371;52.080;5.624;2023-03-18T00:52:06;6.88;;;3.45;;
25449;SDS011;13371;52.080;5.624;2023-03-18T00:54:32;5.80;;;2.67;;
25449;SDS011;13371;52.080;5.624;2023-03-18T00:56:59;7.43;;;3.60;;
25449;SDS011;13371;52.080;5.624;2023-03-18T00:59:25;7.78;;;3.20;;
25449;SDS011;13371;52.080;5.624;2023-03-18T01:01:51;6.43;;;3.40;;
25449;SDS011;13371;52.080;5.624;2023-03-18T01:04:17;6.20;;;3.63;;
25449;SDS011;13371;52.080;5.624;2023-03-18T01:06:43;11.48;;;3.85;;
25449;SDS011;13371;52.080;5.624;2023-03-18T01:09:09;8.90;;;3.65;;
25449;SDS011;13371;52.080;5.624;2023-03-18T01:11:35;8.30;;;3.72;;
25449;SDS011;13371;52.080;5.624;2023-03-18T01:14:02;13.00;;;4.18;;
25449;SDS011;13371;52.080;5.624;2023-03-18T01:16:28;10.90;;;4.28;;
25449;SDS011;13371;52.080;5.624;2023-03-18T01:18:53;11.00;;;5.00;;
25449;SDS011;13371;52.080;5.624;2023-03-18T01:21:19;8.27;;;4.30;;
25449;SDS011;13371;52.080;5.624;2023-03-18T01:23:46;10.07;;;4.82;;
25449;SDS011;13371;52.080;5.624;2023-03-18T01:26:12;10.73;;;4.80;;
25449;SDS011;13371;52.080;5.624;2023-03-18T01:28:37;10.25;;;4.30;;
25449;SDS011;13371;52.080;5.624;2023-03-18T01:31:03;11.63;;;5.40;;
25449;SDS011;13371;52.080;5.624;2023-03-18T01:33:29;10.23;;;3.97;;
25449;SDS011;13371;52.080;5.624;2023-03-18T01:35:55;8.60;;;4.47;;
25449;SDS011;13371;52.080;5.624;2023-03-18T01:38:23;11.38;;;4.40;;
25449;SDS011;13371;52.080;5.624;2023-03-18T01:40:49;8.32;;;3.88;;
25449;SDS011;13371;52.080;5.624;2023-03-18T01:43:18;7.85;;;3.88;;
25449;SDS011;13371;52.080;5.624;2023-03-18T01:45:52;10.10;;;3.65;;
25449;SDS011;13371;52.080;5.624;2023-03-18T01:48:20;8.30;;;3.88;;
25449;SDS011;13371;52.080;5.624;2023-03-18T01:50:50;8.80;;;4.50;;
25449;SDS011;13371;52.080;5.624;2023-03-18T01:53:27;8.98;;;3.60;;
25449;SDS011;13371;52.080;5.624;2023-03-18T01:55:56;15.25;;;4.85;;
25449;SDS011;13371;52.080;5.624;2023-03-18T01:58:24;9.90;;;4.72;;
25449;SDS011;13371;52.080;5.624;2023-03-18T02:00:56;9.15;;;4.63;;
25449;SDS011;13371;52.080;5.624;2023-03-18T02:03:26;9.48;;;4.55;;
25449;SDS011;13371;52.080;5.624;2023-03-18T02:05:53;11.18;;;4.82;;
25449;SDS011;13371;52.080;5.624;2023-03-18T02:08:19;10.20;;;4.30;;
25449;SDS011;13371;52.080;5.624;2023-03-18T02:10:45;10.75;;;5.05;;
25449;SDS011;13371;52.080;5.624;2023-03-18T02:13:11;8.27;;;5.10;;
25449;SDS011;13371;52.080;5.624;2023-03-18T02:15:40;11.55;;;4.78;;
25449;SDS011;13371;52.080;5.624;2023-03-18T02:18:16;10.68;;;5.18;;
25449;SDS011;13371;52.080;5.624;2023-03-18T02:26:35;13.18;;;5.07;;
25449;SDS011;13371;52.080;5.624;2023-03-18T02:29:17;12.02;;;5.45;;
25449;SDS011;13371;52.080;5.624;2023-03-18T02:31:45;13.30;;;6.13;;
25449;SDS011;13371;52.080;5.624;2023-03-18T02:34:11;8.45;;;4.57;;
25449;SDS011;13371;52.080;5.624;2023-03-18T02:36:38;10.73;;;5.78;;
25449;SDS011;13371;52.080;5.624;2023-03-18T02:39:04;13.38;;;4.78;;
25449;SDS011;13371;52.080;5.624;2023-03-18T02:41:31;12.75;;;4.93;;
25449;SDS011;13371;52.080;5.624;2023-03-18T02:44:00;8.20;;;4.72;;
25449;SDS011;13371;52.080;5.624;2023-03-18T02:48:51;12.98;;;5.50;;
25449;SDS011;13371;52.080;5.624;2023-03-18T02:51:18;9.52;;;5.30;;
25449;SDS011;13371;52.080;5.624;2023-03-18T02:53:45;15.32;;;5.00;;
25449;SDS011;13371;52.080;5.624;2023-03-18T02:56:12;9.02;;;5.00;;
25449;SDS011;13371;52.080;5.624;2023-03-18T02:58:39;8.02;;;4.45;;
25449;SDS011;13371;52.080;5.624;2023-03-18T03:01:05;10.68;;;5.03;;
25449;SDS011;13371;52.080;5.624;2023-03-18T03:03:32;10.60;;;5.35;;
25449;SDS011;13371;52.080;5.624;2023-03-18T03:05:59;11.18;;;5.53;;
25449;SDS011;13371;52.080;5.624;2023-03-18T03:08:25;10.27;;;5.78;;
25449;SDS011;13371;52.080;5.624;2023-03-18T03:10:51;11.88;;;6.03;;
25449;SDS011;13371;52.080;5.624;2023-03-18T03:13:17;11.38;;;5.45;;
25449;SDS011;13371;52.080;5.624;2023-03-18T03:15:44;10.05;;;5.72;;
25449;SDS011;13371;52.080;5.624;2023-03-18T03:18:09;8.80;;;4.72;;
25449;SDS011;13371;52.080;5.624;2023-03-18T03:20:35;8.23;;;5.10;;
25449;SDS011;13371;52.080;5.624;2023-03-18T03:23:04;8.98;;;5.05;;
25449;SDS011;13371;52.080;5.624;2023-03-18T03:25:31;11.38;;;5.18;;
25449;SDS011;13371;52.080;5.624;2023-03-18T03:27:58;12.23;;;4.82;;
25449;SDS011;13371;52.080;5.624;2023-03-18T03:30:24;9.20;;;5.00;;
25449;SDS011;13371;52.080;5.624;2023-03-18T03:32:50;8.98;;;5.28;;
25449;SDS011;13371;52.080;5.624;2023-03-18T03:35:16;8.13;;;4.82;;
25449;SDS011;13371;52.080;5.624;2023-03-18T03:37:43;10.18;;;5.57;;
25449;SDS011;13371;52.080;5.624;2023-03-18T03:40:10;10.73;;;5.90;;
25449;SDS011;13371;52.080;5.624;2023-03-18T03:42:37;15.48;;;5.72;;
25449;SDS011;13371;52.080;5.624;2023-03-18T03:45:03;11.25;;;5.10;;
25449;SDS011;13371;52.080;5.624;2023-03-18T03:47:29;11.35;;;5.65;;
25449;SDS011;13371;52.080;5.624;2023-03-18T03:49:55;10.85;;;5.45;;
25449;SDS011;13371;52.080;5.624;2023-03-18T03:52:21;8.55;;;4.90;;
25449;SDS011;13371;52.080;5.624;2023-03-18T03:54:47;8.35;;;5.15;;
25449;SDS011;13371;52.080;5.624;2023-03-18T03:57:12;8.90;;;4.72;;
25449;SDS011;13371;52.080;5.624;2023-03-18T03:59:38;11.85;;;5.80;;
25449;SDS011;13371;52.080;5.624;2023-03-18T04:02:04;13.75;;;5.97;;
25449;SDS011;13371;52.080;5.624;2023-03-18T04:04:30;7.55;;;4.70;;
25449;SDS011;13371;52.080;5.624;2023-03-18T04:06:55;8.77;;;4.75;;
25449;SDS011;13371;52.080;5.624;2023-03-18T04:09:22;8.63;;;4.75;;
25449;SDS011;13371;52.080;5.624;2023-03-18T04:11:47;10.77;;;5.55;;
25449;SDS011;13371;52.080;5.624;2023-03-18T04:14:13;11.65;;;5.28;;
25449;SDS011;13371;52.080;5.624;2023-03-18T04:16:39;13.07;;;4.85;;
25449;SDS011;13371;52.080;5.624;2023-03-18T04:19:04;13.32;;;5.63;;
25449;SDS011;13371;52.080;5.624;2023-03-18T04:21:31;13.85;;;5.38;;
25449;SDS011;13371;52.080;5.624;2023-03-18T04:23:56;14.80;;;6.10;;
25449;SDS011;13371;52.080;5.624;2023-03-18T04:26:22;9.15;;;5.25;;
25449;SDS011;13371;52.080;5.624;2023-03-18T04:28:48;11.57;;;5.78;;
25449;SDS011;13371;52.080;5.624;2023-03-18T04:31:13;13.90;;;6.28;;
25449;SDS011;13371;52.080;5.624;2023-03-18T04:33:39;12.20;;;5.63;;
25449;SDS011;13371;52.080;5.624;2023-03-18T04:36:05;15.15;;;5.15;;
25449;SDS011;13371;52.080;5.624;2023-03-18T04:38:31;10.88;;;5.63;;
25449;SDS011;13371;52.080;5.624;2023-03-18T04:40:57;10.30;;;5.75;;
25449;SDS011;13371;52.080;5.624;2023-03-18T04:43:23;10.75;;;5.72;;
25449;SDS011;13371;52.080;5.624;2023-03-18T04:45:48;13.25;;;5.78;;
25449;SDS011;13371;52.080;5.624;2023-03-18T04:48:14;15.95;;;6.35;;
25449;SDS011;13371;52.080;5.624;2023-03-18T04:50:39;11.20;;;5.93;;
25449;SDS011;13371;52.080;5.624;2023-03-18T04:53:05;10.48;;;5.53;;
25449;SDS011;13371;52.080;5.624;2023-03-18T04:55:30;12.45;;;6.38;;
25449;SDS011;13371;52.080;5.624;2023-03-18T04:57:57;14.40;;;5.95;;
25449;SDS011;13371;52.080;5.624;2023-03-18T05:00:23;10.38;;;5.72;;
25449;SDS011;13371;52.080;5.624;2023-03-18T05:02:49;12.45;;;6.30;;
25449;SDS011;13371;52.080;5.624;2023-03-18T05:05:14;10.02;;;5.45;;
25449;SDS011;13371;52.080;5.624;2023-03-18T05:07:40;9.75;;;5.68;;
25449;SDS011;13371;52.080;5.624;2023-03-18T05:10:06;12.55;;;5.63;;
25449;SDS011;13371;52.080;5.624;2023-03-18T05:12:32;13.07;;;6.13;;
25449;SDS011;13371;52.080;5.624;2023-03-18T05:14:58;12.45;;;5.32;;
25449;SDS011;13371;52.080;5.624;2023-03-18T05:17:24;9.70;;;5.47;;
25449;SDS011;13371;52.080;5.624;2023-03-18T05:19:50;10.70;;;5.35;;
25449;SDS011;13371;52.080;5.624;2023-03-18T05:22:16;10.55;;;6.05;;
25449;SDS011;13371;52.080;5.624;2023-03-18T05:24:42;15.25;;;6.75;;
25449;SDS011;13371;52.080;5.624;2023-03-18T05:27:10;12.68;;;6.40;;
25449;SDS011;13371;52.080;5.624;2023-03-18T05:29:37;14.18;;;6.45;;
25449;SDS011;13371;52.080;5.624;2023-03-18T05:32:04;12.85;;;6.28;;
25449;SDS011;13371;52.080;5.624;2023-03-18T05:34:34;11.80;;;6.47;;
25449;SDS011;13371;52.080;5.624;2023-03-18T05:37:01;11.55;;;5.53;;
25449;SDS011;13371;52.080;5.624;2023-03-18T05:39:28;11.27;;;6.10;;
25449;SDS011;13371;52.080;5.624;2023-03-18T05:41:55;15.32;;;6.40;;
25449;SDS011;13371;52.080;5.624;2023-03-18T05:44:21;13.05;;;6.50;;
25449;SDS011;13371;52.080;5.624;2023-03-18T05:46:47;13.65;;;5.95;;
25449;SDS011;13371;52.080;5.624;2023-03-18T05:49:12;23.35;;;6.78;;
25449;SDS011;13371;52.080;5.624;2023-03-18T05:51:38;14.88;;;6.60;;
25449;SDS011;13371;52.080;5.624;2023-03-18T05:54:04;14.45;;;7.13;;
25449;SDS011;13371;52.080;5.624;2023-03-18T05:56:30;16.77;;;6.70;;
25449;SDS011;13371;52.080;5.624;2023-03-18T05:58:56;13.93;;;6.57;;
25449;SDS011;13371;52.080;5.624;2023-03-18T06:01:22;13.57;;;6.85;;
25449;SDS011;13371;52.080;5.624;2023-03-18T06:03:49;14.77;;;7.85;;
25449;SDS011;13371;52.080;5.624;2023-03-18T06:06:15;14.82;;;6.90;;
25449;SDS011;13371;52.080;5.624;2023-03-18T06:08:41;11.20;;;5.75;;
25449;SDS011;13371;52.080;5.624;2023-03-18T06:11:07;17.83;;;7.40;;
25449;SDS011;13371;52.080;5.624;2023-03-18T06:13:33;14.23;;;6.32;;
25449;SDS011;13371;52.080;5.624;2023-03-18T06:15:58;13.38;;;7.07;;
25449;SDS011;13371;52.080;5.624;2023-03-18T06:18:25;14.07;;;7.47;;
25449;SDS011;13371;52.080;5.624;2023-03-18T06:20:51;12.50;;;7.25;;
25449;SDS011;13371;52.080;5.624;2023-03-18T06:23:17;12.18;;;6.88;;
25449;SDS011;13371;52.080;5.624;2023-03-18T06:25:43;12.50;;;6.80;;
25449;SDS011;13371;52.080;5.624;2023-03-18T06:28:10;14.88;;;7.50;;
25449;SDS011;13371;52.080;5.624;2023-03-18T06:30:37;14.57;;;7.88;;
25449;SDS011;13371;52.080;5.624;2023-03-18T06:33:02;14.50;;;7.20;;
25449;SDS011;13371;52.080;5.624;2023-03-18T06:35:28;14.18;;;6.80;;
25449;SDS011;13371;52.080;5.624;2023-03-18T06:37:55;14.70;;;7.53;;
25449;SDS011;13371;52.080;5.624;2023-03-18T06:40:21;13.30;;;7.68;;
25449;SDS011;13371;52.080;5.624;2023-03-18T06:42:48;13.25;;;6.80;;
25449;SDS011;13371;52.080;5.624;2023-03-18T06:45:14;16.15;;;7.82;;
25449;SDS011;13371;52.080;5.624;2023-03-18T06:47:41;19.73;;;9.02;;
25449;SDS011;13371;52.080;5.624;2023-03-18T06:50:07;19.38;;;9.10;;
25449;SDS011;13371;52.080;5.624;2023-03-18T06:52:33;16.83;;;7.20;;
25449;SDS011;13371;52.080;5.624;2023-03-18T06:54:59;13.13;;;7.35;;
25449;SDS011;13371;52.080;5.624;2023-03-18T06:57:24;15.27;;;7.95;;
25449;SDS011;13371;52.080;5.624;2023-03-18T06:59:51;13.88;;;7.63;;
25449;SDS011;13371;52.080;5.624;2023-03-18T07:02:18;17.90;;;7.18;;
25449;SDS011;13371;52.080;5.624;2023-03-18T07:04:43;15.10;;;8.10;;
25449;SDS011;13371;52.080;5.624;2023-03-18T07:07:09;18.42;;;9.15;;
25449;SDS011;13371;52.080;5.624;2023-03-18T07:09:35;17.75;;;8.38;;
25449;SDS011;13371;52.080;5.624;2023-03-18T07:12:01;16.60;;;8.68;;
25449;SDS011;13371;52.080;5.624;2023-03-18T07:14:27;16.58;;;8.50;;
25449;SDS011;13371;52.080;5.624;2023-03-18T07:16:53;16.92;;;7.68;;
25449;SDS011;13371;52.080;5.624;2023-03-18T07:19:20;18.70;;;9.30;;
25449;SDS011;13371;52.080;5.624;2023-03-18T07:21:45;20.95;;;10.00;;
25449;SDS011;13371;52.080;5.624;2023-03-18T07:24:11;15.45;;;8.77;;
25449;SDS011;13371;52.080;5.624;2023-03-18T07:26:38;20.23;;;9.18;;
25449;SDS011;13371;52.080;5.624;2023-03-18T07:29:04;16.73;;;9.35;;
25449;SDS011;13371;52.080;5.624;2023-03-18T07:31:30;20.10;;;9.63;;
25449;SDS011;13371;52.080;5.624;2023-03-18T07:33:55;18.98;;;10.13;;
25449;SDS011;13371;52.080;5.624;2023-03-18T07:36:21;16.55;;;10.05;;
25449;SDS011;13371;52.080;5.624;2023-03-18T07:38:47;20.33;;;9.15;;
25449;SDS011;13371;52.080;5.624;2023-03-18T07:41:13;16.38;;;9.13;;
25449;SDS011;13371;52.080;5.624;2023-03-18T07:43:39;19.95;;;9.95;;
25449;SDS011;13371;52.080;5.624;2023-03-18T07:46:05;14.80;;;8.27;;
25449;SDS011;13371;52.080;5.624;2023-03-18T07:48:31;18.60;;;9.68;;
25449;SDS011;13371;52.080;5.624;2023-03-18T07:50:58;17.88;;;8.35;;
25449;SDS011;13371;52.080;5.624;2023-03-18T07:53:25;19.63;;;8.90;;
25449;SDS011;13371;52.080;5.624;2023-03-18T07:55:52;16.58;;;8.30;;
25449;SDS011;13371;52.080;5.624;2023-03-18T07:58:18;15.88;;;8.52;;
25449;SDS011;13371;52.080;5.624;2023-03-18T08:00:43;14.35;;;7.75;;
25449;SDS011;13371;52.080;5.624;2023-03-18T08:03:10;14.02;;;7.72;;
25449;SDS011;13371;52.080;5.624;2023-03-18T08:05:37;16.90;;;8.27;;
25449;SDS011;13371;52.080;5.624;2023-03-18T08:08:03;16.65;;;7.38;;
25449;SDS011;13371;52.080;5.624;2023-03-18T08:10:29;13.85;;;8.60;;
25449;SDS011;13371;52.080;5.624;2023-03-18T08:13:00;18.40;;;8.38;;
25449;SDS011;13371;52.080;5.624;2023-03-18T08:15:25;15.38;;;8.77;;
25449;SDS011;13371;52.080;5.624;2023-03-18T08:17:51;16.98;;;8.02;;
25449;SDS011;13371;52.080;5.624;2023-03-18T08:20:17;21.80;;;9.40;;
25449;SDS011;13371;52.080;5.624;2023-03-18T08:22:44;14.80;;;8.25;;
25449;SDS011;13371;52.080;5.624;2023-03-18T08:25:10;15.52;;;8.23;;
25449;SDS011;13371;52.080;5.624;2023-03-18T08:27:36;15.98;;;7.88;;
25449;SDS011;13371;52.080;5.624;2023-03-18T08:30:02;18.25;;;8.05;;
25449;SDS011;13371;52.080;5.624;2023-03-18T08:32:27;13.82;;;7.72;;
25449;SDS011;13371;52.080;5.624;2023-03-18T08:34:54;14.82;;;8.02;;
25449;SDS011;13371;52.080;5.624;2023-03-18T08:37:20;14.52;;;7.28;;
25449;SDS011;13371;52.080;5.624;2023-03-18T08:39:46;12.32;;;6.93;;
25449;SDS011;13371;52.080;5.624;2023-03-18T08:42:11;15.63;;;7.28;;
25449;SDS011;13371;52.080;5.624;2023-03-18T08:44:40;14.88;;;7.45;;
25449;SDS011;13371;52.080;5.624;2023-03-18T08:47:07;16.15;;;7.70;;
25449;SDS011;13371;52.080;5.624;2023-03-18T08:49:32;15.02;;;6.97;;
25449;SDS011;13371;52.080;5.624;2023-03-18T08:51:58;13.68;;;7.75;;
25449;SDS011;13371;52.080;5.624;2023-03-18T08:54:24;11.73;;;6.78;;
25449;SDS011;13371;52.080;5.624;2023-03-18T08:56:49;17.05;;;7.63;;
25449;SDS011;13371;52.080;5.624;2023-03-18T08:59:16;17.90;;;7.85;;
25449;SDS011;13371;52.080;5.624;2023-03-18T09:01:42;12.50;;;7.22;;
25449;SDS011;13371;52.080;5.624;2023-03-18T09:04:07;9.55;;;5.95;;
25449;SDS011;13371;52.080;5.624;2023-03-18T09:06:33;11.25;;;6.25;;
25449;SDS011;13371;52.080;5.624;2023-03-18T09:08:59;12.27;;;6.93;;
25449;SDS011;13371;52.080;5.624;2023-03-18T09:11:24;10.85;;;6.15;;
25449;SDS011;13371;52.080;5.624;2023-03-18T09:13:50;11.55;;;5.75;;
25449;SDS011;13371;52.080;5.624;2023-03-18T09:16:16;9.65;;;5.55;;
25449;SDS011;13371;52.080;5.624;2023-03-18T09:18:42;9.52;;;5.57;;
25449;SDS011;13371;52.080;5.624;2023-03-18T09:21:07;9.32;;;4.93;;
25449;SDS011;13371;52.080;5.624;2023-03-18T09:23:33;8.85;;;5.00;;
25449;SDS011;13371;52.080;5.624;2023-03-18T09:25:59;14.05;;;6.20;;
25449;SDS011;13371;52.080;5.624;2023-03-18T09:28:26;10.88;;;6.28;;
25449;SDS011;13371;52.080;5.624;2023-03-18T09:30:51;10.77;;;5.05;;
25449;SDS011;13371;52.080;5.624;2023-03-18T09:33:18;10.30;;;5.25;;
25449;SDS011;13371;52.080;5.624;2023-03-18T09:35:44;12.38;;;6.05;;
25449;SDS011;13371;52.080;5.624;2023-03-18T09:38:17;8.38;;;5.22;;
25449;SDS011;13371;52.080;5.624;2023-03-18T09:48:59;14.02;;;6.32;;
25449;SDS011;13371;52.080;5.624;2023-03-18T09:54:36;11.02;;;6.22;;
25449;SDS011;13371;52.080;5.624;2023-03-18T09:57:13;9.98;;;5.28;;
25449;SDS011;13371;52.080;5.624;2023-03-18T09:59:49;11.45;;;5.72;;
25449;SDS011;13371;52.080;5.624;2023-03-18T10:02:26;10.65;;;4.72;;
25449;SDS011;13371;52.080;5.624;2023-03-18T10:05:01;9.13;;;6.10;;
25449;SDS011;13371;52.080;5.624;2023-03-18T10:07:41;9.18;;;4.93;;
25449;SDS011;13371;52.080;5.624;2023-03-18T10:10:23;10.45;;;5.18;;
25449;SDS011;13371;52.080;5.624;2023-03-18T10:13:14;8.32;;;4.32;;
25449;SDS011;13371;52.080;5.624;2023-03-18T10:15:46;8.38;;;4.72;;
25449;SDS011;13371;52.080;5.624;2023-03-18T10:27:06;6.70;;;4.30;;
25449;SDS011;13371;52.080;5.624;2023-03-18T10:29:46;12.45;;;4.47;;
25449;SDS011;13371;52.080;5.624;2023-03-18T10:38:15;6.68;;;4.00;;
25449;SDS011;13371;52.080;5.624;2023-03-18T10:40:47;6.10;;;3.45;;
25449;SDS011;13371;52.080;5.624;2023-03-18T10:43:31;8.90;;;4.22;;
25449;SDS011;13371;52.080;5.624;2023-03-18T10:45:59;9.68;;;4.35;;
25449;SDS011;13371;52.080;5.624;2023-03-18T10:48:28;6.45;;;3.88;;
25449;SDS011;13371;52.080;5.624;2023-03-18T10:54:21;6.50;;;3.53;;
25449;SDS011;13371;52.080;5.624;2023-03-18T10:57:00;9.05;;;4.05;;
25449;SDS011;13371;52.080;5.624;2023-03-18T10:59:26;7.68;;;4.05;;
25449;SDS011;13371;52.080;5.624;2023-03-18T11:01:57;8.18;;;3.95;;
25449;SDS011;13371;52.080;5.624;2023-03-18T11:04:27;9.82;;;4.13;;
25449;SDS011;13371;52.080;5.624;2023-03-18T11:06:55;8.93;;;3.65;;
25449;SDS011;13371;52.080;5.624;2023-03-18T11:09:35;7.60;;;4.32;;
25449;SDS011;13371;52.080;5.624;2023-03-18T11:12:22;8.32;;;4.00;;
25449;SDS011;13371;52.080;5.624;2023-03-18T11:14:51;6.20;;;3.42;;
25449;SDS011;13371;52.080;5.624;2023-03-18T11:22:32;5.65;;;3.25;;
25449;SDS011;13371;52.080;5.624;2023-03-18T11:27:40;7.03;;;3.88;;
25449;SDS011;13371;52.080;5.624;2023-03-18T11:30:12;5.25;;;3.30;;
25449;SDS011;13371;52.080;5.624;2023-03-18T11:35:24;6.15;;;2.95;;
25449;SDS011;13371;52.080;5.624;2023-03-18T11:38:38;6.63;;;3.00;;
25449;SDS011;13371;52.080;5.624;2023-03-18T11:41:13;5.53;;;3.00;;
25449;SDS011;13371;52.080;5.624;2023-03-18T11:46:21;6.35;;;3.58;;
25449;SDS011;13371;52.080;5.624;2023-03-18T11:48:49;6.00;;;2.90;;
25449;SDS011;13371;52.080;5.624;2023-03-18T11:56:28;5.85;;;2.83;;
25449;SDS011;13371;52.080;5.624;2023-03-18T12:02:07;5.70;;;2.85;;
25449;SDS011;13371;52.080;5.624;2023-03-18T12:10:40;8.75;;;3.50;;
25449;SDS011;13371;52.080;5.624;2023-03-18T12:13:55;6.10;;;3.13;;
25449;SDS011;13371;52.080;5.624;2023-03-18T12:19:03;7.80;;;2.80;;
25449;SDS011;13371;52.080;5.624;2023-03-18T12:30:06;5.45;;;2.28;;
25449;SDS011;13371;52.080;5.624;2023-03-18T12:45:56;4.53;;;2.45;;
25449;SDS011;13371;52.080;5.624;2023-03-18T12:48:29;4.93;;;2.05;;
25449;SDS011;13371;52.080;5.624;2023-03-18T12:51:01;5.28;;;2.35;;
25449;SDS011;13371;52.080;5.624;2023-03-18T12:53:49;7.70;;;2.50;;
25449;SDS011;13371;52.080;5.624;2023-03-18T12:56:19;5.10;;;1.98;;
25449;SDS011;13371;52.080;5.624;2023-03-18T12:58:53;5.28;;;2.00;;
25449;SDS011;13371;52.080;5.624;2023-03-18T13:01:35;4.03;;;2.05;;
25449;SDS011;13371;52.080;5.624;2023-03-18T13:04:06;3.30;;;2.22;;
25449;SDS011;13371;52.080;5.624;2023-03-18T13:17:36;4.30;;;2.30;;
25449;SDS011;13371;52.080;5.624;2023-03-18T13:20:12;5.97;;;2.42;;
25449;SDS011;13371;52.080;5.624;2023-03-18T13:25:53;5.80;;;2.28;;
25449;SDS011;13371;52.080;5.624;2023-03-18T13:28:34;9.32;;;2.45;;
25449;SDS011;13371;52.080;5.624;2023-03-18T13:31:19;6.68;;;2.75;;
25449;SDS011;13371;52.080;5.624;2023-03-18T13:47:58;4.78;;;2.15;;
25449;SDS011;13371;52.080;5.624;2023-03-18T13:50:43;5.90;;;2.55;;
25449;SDS011;13371;52.080;5.624;2023-03-18T13:55:59;5.78;;;2.28;;
25449;SDS011;13371;52.080;5.624;2023-03-18T13:58:28;9.05;;;2.63;;
25449;SDS011;13371;52.080;5.624;2023-03-18T14:01:10;3.67;;;2.10;;
25449;SDS011;13371;52.080;5.624;2023-03-18T14:07:16;4.85;;;2.17;;
25449;SDS011;13371;52.080;5.624;2023-03-18T14:22:46;4.18;;;2.30;;
25449;SDS011;13371;52.080;5.624;2023-03-18T14:25:19;7.03;;;1.92;;
25449;SDS011;13371;52.080;5.624;2023-03-18T14:27:47;5.47;;;2.00;;
25449;SDS011;13371;52.080;5.624;2023-03-18T14:33:26;3.70;;;2.15;;
25449;SDS011;13371;52.080;5.624;2023-03-18T14:38:33;7.13;;;2.45;;
25449;SDS011;13371;52.080;5.624;2023-03-18T14:41:02;5.18;;;2.00;;
25449;SDS011;13371;52.080;5.624;2023-03-18T14:43:39;3.17;;;1.40;;
25449;SDS011;13371;52.080;5.624;2023-03-18T14:46:16;3.67;;;1.88;;
25449;SDS011;13371;52.080;5.624;2023-03-18T14:48:45;4.28;;;2.22;;
25449;SDS011;13371;52.080;5.624;2023-03-18T14:51:17;5.40;;;2.25;;
25449;SDS011;13371;52.080;5.624;2023-03-18T14:53:46;4.28;;;2.30;;
25449;SDS011;13371;52.080;5.624;2023-03-18T14:56:17;7.63;;;2.45;;
25449;SDS011;13371;52.080;5.624;2023-03-18T14:58:46;6.88;;;2.60;;
25449;SDS011;13371;52.080;5.624;2023-03-18T15:01:12;5.22;;;2.40;;
25449;SDS011;13371;52.080;5.624;2023-03-18T15:03:41;8.55;;;3.30;;
25449;SDS011;13371;52.080;5.624;2023-03-18T15:06:18;5.75;;;2.55;;
25449;SDS011;13371;52.080;5.624;2023-03-18T15:08:48;5.38;;;2.47;;
25449;SDS011;13371;52.080;5.624;2023-03-18T15:11:22;4.85;;;2.63;;
25449;SDS011;13371;52.080;5.624;2023-03-18T15:13:48;3.33;;;2.22;;
25449;SDS011;13371;52.080;5.624;2023-03-18T15:16:18;2.08;;;1.30;;
25449;SDS011;13371;52.080;5.624;2023-03-18T15:18:50;4.57;;;2.33;;
25449;SDS011;13371;52.080;5.624;2023-03-18T15:21:38;5.03;;;2.03;;
25449;SDS011;13371;52.080;5.624;2023-03-18T15:24:05;3.45;;;1.83;;
25449;SDS011;13371;52.080;5.624;2023-03-18T15:26:38;3.05;;;1.85;;
25449;SDS011;13371;52.080;5.624;2023-03-18T15:29:20;3.20;;;1.73;;
25449;SDS011;13371;52.080;5.624;2023-03-18T15:32:04;5.38;;;1.88;;
25449;SDS011;13371;52.080;5.624;2023-03-18T15:34:32;3.13;;;1.67;;
25449;SDS011;13371;52.080;5.624;2023-03-18T15:37:00;2.33;;;1.10;;
25449;SDS011;13371;52.080;5.624;2023-03-18T15:42:01;2.72;;;1.05;;
25449;SDS011;13371;52.080;5.624;2023-03-18T15:44:53;2.00;;;0.90;;
25449;SDS011;13371;52.080;5.624;2023-03-18T15:47:32;1.58;;;1.00;;
25449;SDS011;13371;52.080;5.624;2023-03-18T15:49:59;1.65;;;0.95;;
25449;SDS011;13371;52.080;5.624;2023-03-18T15:52:34;2.25;;;1.30;;
25449;SDS011;13371;52.080;5.624;2023-03-18T15:58:34;4.47;;;1.85;;
25449;SDS011;13371;52.080;5.624;2023-03-18T16:01:01;3.33;;;1.40;;
25449;SDS011;13371;52.080;5.624;2023-03-18T16:03:27;3.40;;;1.20;;
25449;SDS011;13371;52.080;5.624;2023-03-18T16:05:56;2.67;;;1.00;;
25449;SDS011;13371;52.080;5.624;2023-03-18T16:08:22;3.53;;;1.33;;
25449;SDS011;13371;52.080;5.624;2023-03-18T16:10:49;2.80;;;1.30;;
25449;SDS011;13371;52.080;5.624;2023-03-18T16:13:26;3.38;;;1.60;;
25449;SDS011;13371;52.080;5.624;2023-03-18T16:15:54;2.47;;;1.35;;
25449;SDS011;13371;52.080;5.624;2023-03-18T16:18:20;3.25;;;1.42;;
25449;SDS011;13371;52.080;5.624;2023-03-18T16:20:46;4.65;;;1.50;;
25449;SDS011;13371;52.080;5.624;2023-03-18T16:23:13;4.57;;;2.17;;
25449;SDS011;13371;52.080;5.624;2023-03-18T16:25:43;2.03;;;1.38;;
25449;SDS011;13371;52.080;5.624;2023-03-18T16:28:16;3.63;;;1.55;;
25449;SDS011;13371;52.080;5.624;2023-03-18T16:30:46;6.18;;;1.42;;
25449;SDS011;13371;52.080;5.624;2023-03-18T16:33:14;2.20;;;1.30;;
25449;SDS011;13371;52.080;5.624;2023-03-18T16:35:44;3.55;;;1.33;;
25449;SDS011;13371;52.080;5.624;2023-03-18T16:38:14;2.17;;;1.42;;
25449;SDS011;13371;52.080;5.624;2023-03-18T16:40:41;2.38;;;1.65;;
25449;SDS011;13371;52.080;5.624;2023-03-18T16:43:15;3.08;;;1.10;;
25449;SDS011;13371;52.080;5.624;2023-03-18T16:45:45;1.90;;;1.15;;
25449;SDS011;13371;52.080;5.624;2023-03-18T16:48:13;2.15;;;1.27;;
25449;SDS011;13371;52.080;5.624;2023-03-18T16:50:41;3.10;;;1.40;;
25449;SDS011;13371;52.080;5.624;2023-03-18T16:55:48;3.53;;;1.70;;
25449;SDS011;13371;52.080;5.624;2023-03-18T16:58:17;2.40;;;1.35;;
25449;SDS011;13371;52.080;5.624;2023-03-18T17:00:47;2.30;;;1.38;;
25449;SDS011;13371;52.080;5.624;2023-03-18T17:03:14;1.98;;;1.30;;
25449;SDS011;13371;52.080;5.624;2023-03-18T17:05:42;3.03;;;1.35;;
25449;SDS011;13371;52.080;5.624;2023-03-18T17:08:08;4.07;;;1.20;;
25449;SDS011;13371;52.080;5.624;2023-03-18T17:10:34;3.28;;;1.60;;
25449;SDS011;13371;52.080;5.624;2023-03-18T17:13:02;1.85;;;1.15;;
25449;SDS011;13371;52.080;5.624;2023-03-18T17:15:35;5.28;;;1.42;;
25449;SDS011;13371;52.080;5.624;2023-03-18T17:18:05;4.22;;;1.77;;
25449;SDS011;13371;52.080;5.624;2023-03-18T17:20:35;4.35;;;2.63;;